Time;durP1;ratioP1;P1;durP2;ratioP2;P2;SDS_P1;SDS_P2;PMS_P1;PMS_P2;Temp;Humidity;BMP_temperature;BMP_pressure;BME280_temperature;BME280_humidity;BME280_pressure;Samples;Min_cycle;Max_cycle;Signal;HPM_P1;HPM_P2
2022/11/28 00:00:16;;;;;;;3.73;3.37;;;;;;;;;;4994548;28;20206;-61
2022/11/28 00:02:45;;;;;;;4.33;3.00;;;;;;;;;;4970550;28;20313;-63
2022/11/28 00:05:15;;;;;;;3.37;3.07;;;;;;;;;;4990947;28;20182;-62
2022/11/28 00:07:41;;;;;;;3.53;3.23;;;;;;;;;;4991027;28;20755;-61
2022/11/28 00:10:07;;;;;;;3.57;3.23;;;;;;;;;;4994446;28;20215;-61
2022/11/28 00:12:34;;;;;;;3.93;3.63;;;;;;;;;;4988024;28;20182;-61
2022/11/28 00:15:00;;;;;;;3.60;3.20;;;;;;;;;;4988800;28;20182;-61
2022/11/28 00:17:26;;;;;;;4.80;3.10;;;;;;;;;;4993961;28;20260;-60
2022/11/28 00:19:53;;;;;;;3.97;3.03;;;;;;;;;;4991544;28;20193;-61
2022/11/28 00:22:19;;;;;;;4.97;3.80;;;;;;;;;;4993926;28;20229;-60
2022/11/28 00:24:45;;;;;;;4.37;3.70;;;;;;;;;;5003780;28;20185;-60
2022/11/28 00:27:12;;;;;;;4.30;3.37;;;;;;;;;;4997444;28;20183;-63
2022/11/28 00:29:38;;;;;;;4.10;3.33;;;;;;;;;;4984217;28;20179;-64
2022/11/28 00:32:05;;;;;;;4.10;3.07;;;;;;;;;;4976646;28;20258;-61
2022/11/28 00:34:32;;;;;;;4.00;3.17;;;;;;;;;;4979502;28;20186;-63
2022/11/28 00:37:01;;;;;;;4.03;3.67;;;;;;;;;;4993766;28;20213;-62
2022/11/28 00:39:27;;;;;;;4.53;3.17;;;;;;;;;;4996199;28;20235;-60
2022/11/28 00:41:53;;;;;;;4.50;3.47;;;;;;;;;;4996580;28;20179;-61
2022/11/28 00:44:19;;;;;;;3.40;3.10;;;;;;;;;;4993524;28;20822;-61
2022/11/28 00:46:51;;;;;;;3.33;3.03;;;;;;;;;;4998369;28;20198;-61
2022/11/28 00:49:18;;;;;;;4.87;3.10;;;;;;;;;;4996381;28;20840;-61
2022/11/28 00:51:44;;;;;;;4.30;3.90;;;;;;;;;;4982992;28;20283;-61
2022/11/28 00:54:12;;;;;;;3.73;3.43;;;;;;;;;;4989086;28;20264;-61
2022/11/28 00:56:39;;;;;;;4.37;3.40;;;;;;;;;;5002448;28;20575;-61
2022/11/28 00:59:12;;;;;;;5.50;3.47;;;;;;;;;;4979741;28;22093;-61
2022/11/28 01:01:40;;;;;;;4.30;3.27;;;;;;;;;;4985699;28;20185;-62
2022/11/28 01:04:08;;;;;;;4.33;3.13;;;;;;;;;;4996385;28;20179;-61
2022/11/28 01:06:39;;;;;;;3.57;3.27;;;;;;;;;;4997252;28;20313;-61
2022/11/28 01:09:08;;;;;;;5.03;3.90;;;;;;;;;;4992386;28;20178;-60
2022/11/28 01:11:35;;;;;;;3.70;3.33;;;;;;;;;;4990686;28;20259;-62
2022/11/28 01:14:01;;;;;;;3.80;3.50;;;;;;;;;;4998526;28;20548;-61
2022/11/28 01:16:28;;;;;;;4.13;3.50;;;;;;;;;;4996801;28;20207;-61
2022/11/28 01:18:54;;;;;;;4.27;3.40;;;;;;;;;;4969283;28;20661;-61
2022/11/28 01:21:20;;;;;;;3.47;2.93;;;;;;;;;;4992059;28;20217;-61
2022/11/28 01:23:46;;;;;;;4.27;3.60;;;;;;;;;;5000351;28;20606;-61
2022/11/28 01:26:17;;;;;;;5.00;3.40;;;;;;;;;;4976344;28;20187;-61
2022/11/28 01:28:43;;;;;;;4.00;3.60;;;;;;;;;;4984105;28;20187;-61
2022/11/28 01:31:11;;;;;;;4.17;2.77;;;;;;;;;;5000988;28;20238;-61
2022/11/28 01:33:37;;;;;;;3.43;2.87;;;;;;;;;;4992511;28;20194;-61
2022/11/28 01:36:03;;;;;;;3.53;3.10;;;;;;;;;;4993777;28;20317;-61
2022/11/28 01:38:29;;;;;;;4.17;3.20;;;;;;;;;;4988610;28;20179;-61
2022/11/28 01:40:56;;;;;;;4.03;3.20;;;;;;;;;;4999154;28;20170;-61
2022/11/28 01:43:23;;;;;;;3.70;3.30;;;;;;;;;;4992170;28;20181;-61
2022/11/28 01:45:49;;;;;;;3.30;3.00;;;;;;;;;;4992742;28;20612;-62
2022/11/28 01:48:18;;;;;;;3.70;3.30;;;;;;;;;;4994757;28;20210;-62
2022/11/28 01:50:48;;;;;;;4.40;3.20;;;;;;;;;;4976500;28;20224;-62
2022/11/28 01:53:15;;;;;;;3.87;3.47;;;;;;;;;;4994925;28;20689;-61
2022/11/28 01:55:46;;;;;;;4.33;3.40;;;;;;;;;;4992083;28;20190;-62
2022/11/28 01:58:12;;;;;;;4.03;3.03;;;;;;;;;;4994898;28;20639;-61
2022/11/28 02:00:38;;;;;;;5.23;3.37;;;;;;;;;;4989965;28;20175;-61
2022/11/28 02:03:08;;;;;;;5.20;3.50;;;;;;;;;;4994036;28;20170;-62
2022/11/28 02:05:34;;;;;;;3.00;2.70;;;;;;;;;;4973654;28;20715;-61
2022/11/28 02:08:00;;;;;;;4.67;3.70;;;;;;;;;;4996223;28;20165;-61
2022/11/28 02:10:31;;;;;;;3.50;3.20;;;;;;;;;;4964907;28;20400;-61
2022/11/28 02:13:09;;;;;;;6.00;3.50;;;;;;;;;;4997791;28;20202;-60
2022/11/28 02:15:38;;;;;;;5.80;4.10;;;;;;;;;;4996479;28;20187;-62
2022/11/28 02:18:04;;;;;;;4.13;3.50;;;;;;;;;;4993531;28;20193;-61
2022/11/28 02:20:36;;;;;;;3.73;3.43;;;;;;;;;;4989851;28;20194;-61
2022/11/28 02:23:02;;;;;;;3.80;3.13;;;;;;;;;;4993880;28;20674;-61
2022/11/28 02:25:28;;;;;;;4.03;3.23;;;;;;;;;;4986476;28;20685;-61
2022/11/28 02:27:57;;;;;;;3.63;3.07;;;;;;;;;;4979841;28;20177;-61
2022/11/28 02:30:30;;;;;;;3.73;3.40;;;;;;;;;;4975778;28;20638;-61
2022/11/28 02:33:14;;;;;;;4.30;3.30;;;;;;;;;;4992878;28;20213;-61
2022/11/28 02:35:40;;;;;;;3.53;3.23;;;;;;;;;;4985396;28;20548;-61
2022/11/28 02:38:14;;;;;;;3.63;3.20;;;;;;;;;;4989544;28;20651;-61
2022/11/28 02:40:49;;;;;;;4.03;3.50;;;;;;;;;;4985665;28;20193;-61
2022/11/28 02:43:31;;;;;;;3.87;3.37;;;;;;;;;;4979591;28;20232;-62
2022/11/28 02:46:03;;;;;;;4.93;3.63;;;;;;;;;;4988924;28;20961;-61
2022/11/28 02:48:50;;;;;;;5.00;3.67;;;;;;;;;;4987968;28;20193;-61
2022/11/28 02:51:25;;;;;;;3.57;3.27;;;;;;;;;;4997707;28;20258;-62
2022/11/28 02:53:53;;;;;;;5.00;4.50;;;;;;;;;;4987313;28;20237;-61
2022/11/28 02:56:19;;;;;;;4.07;3.67;;;;;;;;;;4989139;28;20226;-62
2022/11/28 02:58:45;;;;;;;4.17;3.77;;;;;;;;;;4983749;28;20171;-62
2022/11/28 03:01:31;;;;;;;4.13;3.73;;;;;;;;;;4986924;28;20242;-61
2022/11/28 03:04:00;;;;;;;4.57;3.30;;;;;;;;;;4986270;28;20210;-61
2022/11/28 03:06:45;;;;;;;8.07;3.50;;;;;;;;;;4986536;28;20981;-61
2022/11/28 03:09:17;;;;;;;4.80;3.57;;;;;;;;;;4985013;28;20183;-61
2022/11/28 03:11:56;;;;;;;4.30;3.63;;;;;;;;;;4988667;28;20187;-61
2022/11/28 03:14:28;;;;;;;4.93;4.00;;;;;;;;;;4982762;28;20185;-62
2022/11/28 03:17:33;;;;;;;4.73;3.90;;;;;;;;;;4997163;28;20309;-62
2022/11/28 03:20:04;;;;;;;3.93;3.37;;;;;;;;;;4919646;29;20233;-62
2022/11/28 03:22:36;;;;;;;4.70;3.27;;;;;;;;;;4926371;28;20207;-62
2022/11/28 03:25:05;;;;;;;5.30;3.57;;;;;;;;;;4965026;28;20257;-62
2022/11/28 03:27:37;;;;;;;3.57;3.27;;;;;;;;;;4989575;28;22263;-62
2022/11/28 03:30:08;;;;;;;3.70;3.00;;;;;;;;;;4984724;28;20191;-62
2022/11/28 03:32:36;;;;;;;4.83;3.53;;;;;;;;;;4982445;28;20249;-62
2022/11/28 03:35:08;;;;;;;3.53;3.20;;;;;;;;;;4998081;28;20269;-62
2022/11/28 03:37:36;;;;;;;3.70;3.40;;;;;;;;;;4974596;28;20206;-63
2022/11/28 03:40:06;;;;;;;4.10;3.70;;;;;;;;;;4979681;28;20648;-62
2022/11/28 03:42:35;;;;;;;3.97;3.43;;;;;;;;;;4990010;28;20209;-62
2022/11/28 03:45:09;;;;;;;3.60;3.30;;;;;;;;;;5004081;28;20580;-62
2022/11/28 03:47:38;;;;;;;3.27;2.97;;;;;;;;;;4992159;28;20219;-62
2022/11/28 03:50:07;;;;;;;3.67;3.37;;;;;;;;;;4983562;28;20191;-63
2022/11/28 03:52:36;;;;;;;4.03;3.63;;;;;;;;;;4991732;28;20181;-62
2022/11/28 03:55:08;;;;;;;4.40;3.00;;;;;;;;;;4965355;28;20844;-63
2022/11/28 03:57:41;;;;;;;4.63;3.70;;;;;;;;;;4958609;28;20207;-62
2022/11/28 04:00:09;;;;;;;4.33;3.63;;;;;;;;;;4970674;28;20693;-62
2022/11/28 04:02:38;;;;;;;3.70;3.27;;;;;;;;;;4971025;28;20524;-62
2022/11/28 04:05:21;;;;;;;3.80;3.47;;;;;;;;;;4981367;28;20198;-62
2022/11/28 04:07:50;;;;;;;4.67;4.00;;;;;;;;;;4957268;28;20211;-62
2022/11/28 04:10:35;;;;;;;4.30;3.37;;;;;;;;;;4977265;28;20183;-62
2022/11/28 04:13:05;;;;;;;4.20;3.17;;;;;;;;;;4981186;28;20193;-62
2022/11/28 04:15:34;;;;;;;5.50;4.10;;;;;;;;;;4958740;28;20203;-62
2022/11/28 04:18:06;;;;;;;4.77;4.00;;;;;;;;;;4973651;28;20198;-62
2022/11/28 04:20:35;;;;;;;5.20;3.90;;;;;;;;;;4948667;28;21101;-62
2022/11/28 04:23:05;;;;;;;3.87;3.30;;;;;;;;;;4972568;28;20225;-62
2022/11/28 04:25:34;;;;;;;4.60;3.67;;;;;;;;;;4969642;28;20288;-62
2022/11/28 04:28:02;;;;;;;4.37;3.50;;;;;;;;;;4954493;28;20175;-62
2022/11/28 04:30:28;;;;;;;3.87;3.20;;;;;;;;;;4952248;28;20191;-63
2022/11/28 04:32:59;;;;;;;4.13;3.73;;;;;;;;;;4980828;28;20183;-62
2022/11/28 04:35:30;;;;;;;4.77;3.50;;;;;;;;;;4970626;28;20190;-62
2022/11/28 04:37:58;;;;;;;4.10;3.70;;;;;;;;;;4970283;28;20334;-62
2022/11/28 04:40:25;;;;;;;3.73;3.40;;;;;;;;;;4968427;28;20728;-62
2022/11/28 04:42:55;;;;;;;3.53;3.23;;;;;;;;;;4976937;28;20190;-62
2022/11/28 04:45:33;;;;;;;3.67;3.17;;;;;;;;;;4953029;28;20199;-62
2022/11/28 04:48:00;;;;;;;4.40;3.47;;;;;;;;;;4953623;28;20210;-62
2022/11/28 04:50:30;;;;;;;4.87;3.73;;;;;;;;;;4971358;28;20193;-62
2022/11/28 04:53:11;;;;;;;5.37;4.70;;;;;;;;;;4973697;28;20215;-62
2022/11/28 04:55:40;;;;;;;4.47;4.00;;;;;;;;;;4956504;28;20753;-62
2022/11/28 04:58:06;;;;;;;4.30;3.90;;;;;;;;;;4954982;28;20211;-62
2022/11/28 05:00:39;;;;;;;4.63;3.50;;;;;;;;;;4976446;28;21131;-62
2022/11/28 05:03:05;;;;;;;5.40;4.50;;;;;;;;;;4969301;28;20239;-62
2022/11/28 05:05:40;;;;;;;5.63;3.90;;;;;;;;;;4977399;28;20630;-62
2022/11/28 05:08:06;;;;;;;4.43;4.03;;;;;;;;;;4971713;28;20175;-62
2022/11/28 05:10:33;;;;;;;4.10;3.47;;;;;;;;;;4971507;28;20175;-61
2022/11/28 05:12:59;;;;;;;3.60;3.30;;;;;;;;;;4978491;28;21114;-61
2022/11/28 05:15:25;;;;;;;5.20;3.80;;;;;;;;;;4967993;28;20176;-61
2022/11/28 05:17:51;;;;;;;5.17;3.80;;;;;;;;;;4968336;28;20200;-61
2022/11/28 05:20:17;;;;;;;4.20;3.80;;;;;;;;;;4957164;28;20179;-62
2022/11/28 05:22:43;;;;;;;4.17;3.50;;;;;;;;;;4964552;28;20662;-62
2022/11/28 05:25:10;;;;;;;4.70;4.17;;;;;;;;;;4963743;28;20178;-61
2022/11/28 05:27:36;;;;;;;4.33;3.93;;;;;;;;;;4968995;28;20893;-61
2022/11/28 05:30:02;;;;;;;5.23;3.77;;;;;;;;;;4949804;28;20194;-61
2022/11/28 05:32:30;;;;;;;5.93;3.90;;;;;;;;;;4968998;28;20211;-61
2022/11/28 05:34:56;;;;;;;4.60;3.87;;;;;;;;;;4957869;28;20190;-61
2022/11/28 05:37:22;;;;;;;4.50;4.10;;;;;;;;;;4966950;28;20195;-61
2022/11/28 05:39:48;;;;;;;5.30;4.67;;;;;;;;;;4964800;28;20180;-61
2022/11/28 05:42:14;;;;;;;5.47;4.27;;;;;;;;;;4972211;28;20172;-61
2022/11/28 05:44:40;;;;;;;4.67;3.90;;;;;;;;;;4978428;28;20186;-62
2022/11/28 05:47:14;;;;;;;4.93;4.10;;;;;;;;;;4964293;28;20317;-62
2022/11/28 05:49:40;;;;;;;7.47;4.60;;;;;;;;;;4976538;28;20847;-62
2022/11/28 05:52:07;;;;;;;6.23;4.90;;;;;;;;;;4964071;28;20871;-62
2022/11/28 05:54:39;;;;;;;5.13;4.43;;;;;;;;;;4965975;28;20411;-61
2022/11/28 05:57:12;;;;;;;5.87;4.33;;;;;;;;;;4973299;28;20207;-61
2022/11/28 05:59:38;;;;;;;6.67;4.47;;;;;;;;;;4952667;28;20219;-60
2022/11/28 06:02:05;;;;;;;5.40;4.90;;;;;;;;;;4982135;28;20176;-61
2022/11/28 06:04:31;;;;;;;5.60;4.03;;;;;;;;;;4981053;28;20635;-61
2022/11/28 06:06:57;;;;;;;4.23;3.83;;;;;;;;;;4968279;28;21214;-61
2022/11/28 06:09:23;;;;;;;4.83;4.40;;;;;;;;;;4966332;28;20191;-61
2022/11/28 06:11:49;;;;;;;4.83;4.30;;;;;;;;;;4948935;28;20222;-61
2022/11/28 06:14:15;;;;;;;4.47;4.07;;;;;;;;;;4964973;28;20180;-61
2022/11/28 06:16:42;;;;;;;4.40;4.00;;;;;;;;;;4969849;28;20724;-61
2022/11/28 06:19:11;;;;;;;5.50;4.27;;;;;;;;;;4970754;28;20191;-61
2022/11/28 06:21:37;;;;;;;4.87;4.27;;;;;;;;;;4951032;28;20191;-61
2022/11/28 06:24:03;;;;;;;6.03;4.53;;;;;;;;;;4963201;28;20489;-61
2022/11/28 06:26:29;;;;;;;3.73;3.13;;;;;;;;;;4969282;28;20278;-61
2022/11/28 06:28:55;;;;;;;4.67;3.97;;;;;;;;;;4951787;28;20187;-61
2022/11/28 06:31:23;;;;;;;5.00;4.50;;;;;;;;;;4966475;28;20258;-60
2022/11/28 06:33:50;;;;;;;4.20;3.77;;;;;;;;;;4962558;28;20182;-60
2022/11/28 06:36:16;;;;;;;5.03;4.07;;;;;;;;;;4966801;28;20200;-60
2022/11/28 06:38:43;;;;;;;4.80;4.23;;;;;;;;;;4960202;28;20647;-60
2022/11/28 06:41:10;;;;;;;5.07;4.40;;;;;;;;;;4965700;28;20239;-60
2022/11/28 06:43:36;;;;;;;5.20;4.57;;;;;;;;;;4960861;28;20226;-61
2022/11/28 06:46:02;;;;;;;4.17;3.70;;;;;;;;;;4961751;28;20657;-60
2022/11/28 06:48:28;;;;;;;4.17;3.77;;;;;;;;;;4970512;28;20340;-61
2022/11/28 06:51:01;;;;;;;4.27;3.80;;;;;;;;;;4973280;28;20214;-61
2022/11/28 06:53:27;;;;;;;5.30;4.17;;;;;;;;;;4958964;28;20300;-60
2022/11/28 06:55:53;;;;;;;4.13;3.83;;;;;;;;;;4993865;28;20398;-61
2022/11/28 06:58:19;;;;;;;4.73;4.23;;;;;;;;;;4994689;28;20207;-61
2022/11/28 07:00:45;;;;;;;4.13;3.73;;;;;;;;;;4966507;28;20373;-60
2022/11/28 07:03:12;;;;;;;4.97;4.27;;;;;;;;;;4968066;28;20178;-60
2022/11/28 07:05:38;;;;;;;5.87;3.90;;;;;;;;;;4988690;28;20286;-60
2022/11/28 07:08:04;;;;;;;4.60;4.10;;;;;;;;;;4998548;28;21277;-60
2022/11/28 07:10:30;;;;;;;5.90;4.00;;;;;;;;;;4988934;28;20952;-60
2022/11/28 07:12:57;;;;;;;4.07;3.50;;;;;;;;;;5000648;28;20175;-60
2022/11/28 07:15:23;;;;;;;3.83;3.43;;;;;;;;;;4994924;28;20618;-60
2022/11/28 07:17:49;;;;;;;4.73;3.93;;;;;;;;;;5011676;28;20210;-60
2022/11/28 07:20:15;;;;;;;5.70;4.53;;;;;;;;;;4987490;28;20179;-60
2022/11/28 07:22:42;;;;;;;5.70;4.50;;;;;;;;;;4977656;28;20662;-60
2022/11/28 07:25:08;;;;;;;4.97;4.47;;;;;;;;;;4996639;28;20185;-60
2022/11/28 07:27:34;;;;;;;4.53;3.93;;;;;;;;;;5003138;28;20369;-60
2022/11/28 07:30:00;;;;;;;4.97;4.13;;;;;;;;;;4994771;28;20189;-59
2022/11/28 07:32:26;;;;;;;4.67;3.93;;;;;;;;;;4996858;28;20232;-60
2022/11/28 07:34:52;;;;;;;5.27;4.47;;;;;;;;;;4992165;28;20515;-60
2022/11/28 07:37:18;;;;;;;5.70;4.10;;;;;;;;;;5003549;28;20244;-64
2022/11/28 07:39:45;;;;;;;4.60;4.20;;;;;;;;;;4998885;28;20568;-60
2022/11/28 07:42:11;;;;;;;5.77;4.33;;;;;;;;;;4971313;28;20266;-60
2022/11/28 07:44:37;;;;;;;4.67;4.03;;;;;;;;;;4997743;28;20411;-60
2022/11/28 07:47:03;;;;;;;5.50;4.77;;;;;;;;;;4995919;28;20209;-61
2022/11/28 07:49:29;;;;;;;5.27;4.43;;;;;;;;;;4990340;28;20209;-60
2022/11/28 07:51:56;;;;;;;4.53;4.13;;;;;;;;;;4996363;28;20192;-60
2022/11/28 07:54:22;;;;;;;4.93;4.43;;;;;;;;;;4991965;28;20674;-60
2022/11/28 07:56:48;;;;;;;4.63;4.20;;;;;;;;;;4981932;28;20205;-60
2022/11/28 07:59:15;;;;;;;4.97;4.27;;;;;;;;;;4975514;28;20246;-60
2022/11/28 08:01:41;;;;;;;5.60;4.30;;;;;;;;;;4971567;28;20186;-60
2022/11/28 08:04:08;;;;;;;5.57;4.40;;;;;;;;;;4970739;28;20175;-60
2022/11/28 08:06:39;;;;;;;6.20;4.60;;;;;;;;;;4977161;28;20312;-60
2022/11/28 08:09:06;;;;;;;5.77;4.70;;;;;;;;;;4974534;28;20223;-60
2022/11/28 08:11:32;;;;;;;4.60;4.20;;;;;;;;;;4982040;28;20475;-60
2022/11/28 08:13:58;;;;;;;5.60;4.60;;;;;;;;;;4965208;28;20178;-60
2022/11/28 08:16:27;;;;;;;5.27;4.33;;;;;;;;;;4981492;28;20712;-60
2022/11/28 08:18:53;;;;;;;5.03;4.47;;;;;;;;;;4969871;28;20682;-59
2022/11/28 08:21:20;;;;;;;5.63;4.80;;;;;;;;;;4968238;28;20844;-60
2022/11/28 08:23:46;;;;;;;5.50;4.53;;;;;;;;;;4952871;28;20190;-60
2022/11/28 08:26:13;;;;;;;5.43;4.27;;;;;;;;;;4978022;28;20674;-60
2022/11/28 08:28:40;;;;;;;4.53;3.70;;;;;;;;;;4954789;28;20198;-60
2022/11/28 08:31:14;;;;;;;6.37;4.87;;;;;;;;;;4978709;28;20649;-60
2022/11/28 08:33:40;;;;;;;5.27;4.40;;;;;;;;;;4975399;28;20188;-60
2022/11/28 08:36:07;;;;;;;5.20;4.70;;;;;;;;;;4974858;28;20584;-60
2022/11/28 08:38:34;;;;;;;5.93;4.73;;;;;;;;;;4970419;28;20672;-60
2022/11/28 08:41:03;;;;;;;4.47;4.07;;;;;;;;;;4956035;28;20234;-60
2022/11/28 08:43:30;;;;;;;5.03;4.00;;;;;;;;;;4980562;28;20190;-60
2022/11/28 08:45:56;;;;;;;5.43;4.73;;;;;;;;;;4963131;28;20225;-60
2022/11/28 08:48:22;;;;;;;4.83;4.33;;;;;;;;;;4974607;28;20180;-60
2022/11/28 08:50:48;;;;;;;4.63;4.23;;;;;;;;;;4974068;28;20179;-60
2022/11/28 08:53:14;;;;;;;4.50;4.10;;;;;;;;;;4973431;28;20171;-60
2022/11/28 08:55:43;;;;;;;6.17;4.33;;;;;;;;;;5003989;28;20174;-60
2022/11/28 08:58:09;;;;;;;5.23;4.73;;;;;;;;;;5002264;28;21088;-60
2022/11/28 09:00:35;;;;;;;6.13;4.53;;;;;;;;;;4999316;28;20170;-60
2022/11/28 09:03:01;;;;;;;4.77;4.10;;;;;;;;;;4987216;28;20270;-60
2022/11/28 09:05:27;;;;;;;5.47;4.50;;;;;;;;;;4985486;28;21079;-60
2022/11/28 09:07:54;;;;;;;5.63;4.47;;;;;;;;;;4989838;28;20303;-60
2022/11/28 09:10:20;;;;;;;5.77;5.17;;;;;;;;;;4995488;28;20183;-60
2022/11/28 09:12:46;;;;;;;5.37;4.87;;;;;;;;;;5001181;28;20237;-60
2022/11/28 09:15:12;;;;;;;5.27;4.77;;;;;;;;;;4996962;28;20212;-60
2022/11/28 09:17:39;;;;;;;5.50;4.77;;;;;;;;;;5001108;28;20748;-60
2022/11/28 09:20:05;;;;;;;5.60;4.60;;;;;;;;;;4985718;28;20205;-60
2022/11/28 09:22:31;;;;;;;6.87;5.53;;;;;;;;;;5000353;28;20183;-60
2022/11/28 09:24:57;;;;;;;5.17;4.67;;;;;;;;;;4978801;28;20191;-60
2022/11/28 09:27:23;;;;;;;5.87;5.07;;;;;;;;;;4999583;28;20632;-60
2022/11/28 09:29:49;;;;;;;5.40;4.57;;;;;;;;;;4994773;28;20306;-60
2022/11/28 09:32:16;;;;;;;5.63;5.13;;;;;;;;;;4996360;28;20175;-60
2022/11/28 09:34:42;;;;;;;5.37;4.43;;;;;;;;;;4991405;28;20183;-60
2022/11/28 09:37:08;;;;;;;5.80;5.03;;;;;;;;;;5000534;28;20490;-60
2022/11/28 09:39:34;;;;;;;7.47;6.20;;;;;;;;;;5008372;28;20174;-60
2022/11/28 09:42:21;;;;;;;7.57;5.43;;;;;;;;;;5003884;28;20182;-60
2022/11/28 09:44:51;;;;;;;5.60;5.03;;;;;;;;;;4978905;28;20750;-60
2022/11/28 09:47:28;;;;;;;6.70;6.03;;;;;;;;;;4995024;28;20199;-60
2022/11/28 09:50:13;;;;;;;5.80;4.97;;;;;;;;;;4985273;28;20174;-60
2022/11/28 09:52:59;;;;;;;5.97;5.37;;;;;;;;;;4996860;28;20182;-60
2022/11/28 09:55:31;;;;;;;7.57;6.70;;;;;;;;;;4997139;28;20249;-61
2022/11/28 09:58:01;;;;;;;6.47;5.73;;;;;;;;;;4998013;28;20557;-60
2022/11/28 10:00:38;;;;;;;6.83;6.23;;;;;;;;;;4984855;28;20185;-61
2022/11/28 10:03:16;;;;;;;6.93;6.23;;;;;;;;;;4989714;28;20166;-61
2022/11/28 10:05:45;;;;;;;7.93;6.40;;;;;;;;;;4996873;28;20664;-61
2022/11/28 10:08:41;;;;;;;8.73;6.97;;;;;;;;;;4991413;28;20209;-60
2022/11/28 10:11:09;;;;;;;7.27;6.57;;;;;;;;;;4985186;28;20586;-61
2022/11/28 10:13:51;;;;;;;10.70;6.43;;;;;;;;;;4982232;28;20268;-61
2022/11/28 10:16:29;;;;;;;8.50;7.17;;;;;;;;;;4982451;28;20209;-60
2022/11/28 10:19:03;;;;;;;7.40;6.70;;;;;;;;;;4978250;28;20182;-61
2022/11/28 10:21:36;;;;;;;7.37;6.07;;;;;;;;;;5002463;28;20162;-60
2022/11/28 10:24:04;;;;;;;9.07;7.73;;;;;;;;;;4989024;28;20189;-61
2022/11/28 10:26:30;;;;;;;7.40;6.60;;;;;;;;;;5014099;28;20175;-61
2022/11/28 10:28:58;;;;;;;7.03;6.33;;;;;;;;;;4990707;28;20206;-61
2022/11/28 10:31:34;;;;;;;8.97;7.90;;;;;;;;;;4994297;28;20193;-61
2022/11/28 10:34:12;;;;;;;7.10;6.40;;;;;;;;;;5000624;28;20529;-61
2022/11/28 10:37:00;;;;;;;7.07;6.20;;;;;;;;;;4989567;28;20234;-60
2022/11/28 10:39:26;;;;;;;6.97;5.67;;;;;;;;;;4967507;28;20209;-60
2022/11/28 10:42:12;;;;;;;6.60;5.20;;;;;;;;;;4996953;28;20177;-61
2022/11/28 10:44:44;;;;;;;6.87;6.17;;;;;;;;;;4993551;28;20209;-61
2022/11/28 10:47:20;;;;;;;7.60;6.50;;;;;;;;;;4980182;28;20203;-61
2022/11/28 10:49:49;;;;;;;6.37;5.73;;;;;;;;;;4990198;28;20588;-61
2022/11/28 10:52:20;;;;;;;7.13;5.47;;;;;;;;;;4999879;28;20170;-61
2022/11/28 10:54:56;;;;;;;6.23;5.63;;;;;;;;;;5003303;28;20272;-61
2022/11/28 10:57:26;;;;;;;8.10;5.90;;;;;;;;;;5005091;28;20220;-61
2022/11/28 10:59:52;;;;;;;6.13;5.57;;;;;;;;;;5004457;28;20171;-60
2022/11/28 11:02:20;;;;;;;6.03;5.47;;;;;;;;;;4983225;28;20195;-61
2022/11/28 11:04:46;;;;;;;5.47;4.97;;;;;;;;;;4985439;28;20301;-61
2022/11/28 11:07:17;;;;;;;7.50;5.87;;;;;;;;;;5004436;28;20321;-61
2022/11/28 11:09:43;;;;;;;5.60;5.00;;;;;;;;;;4979924;28;20241;-61
2022/11/28 11:12:19;;;;;;;6.73;6.03;;;;;;;;;;4991731;28;20633;-61
2022/11/28 11:14:45;;;;;;;10.00;5.63;;;;;;;;;;5003434;28;20907;-61
2022/11/28 11:17:44;;;;;;;6.30;5.70;;;;;;;;;;4996824;28;20328;-61
2022/11/28 11:20:27;;;;;;;7.93;5.50;;;;;;;;;;4942788;28;20645;-61
2022/11/28 11:22:58;;;;;;;6.43;5.70;;;;;;;;;;5004720;28;20290;-61
2022/11/28 11:25:24;;;;;;;6.03;5.27;;;;;;;;;;5005813;28;20182;-61
2022/11/28 11:27:52;;;;;;;6.23;5.47;;;;;;;;;;5010924;28;20652;-61
2022/11/28 11:30:26;;;;;;;6.23;5.23;;;;;;;;;;5002596;28;20743;-65
2022/11/28 11:32:52;;;;;;;5.57;4.93;;;;;;;;;;4987055;28;20194;-61
2022/11/28 11:35:24;;;;;;;6.50;5.40;;;;;;;;;;4985563;28;20193;-61
2022/11/28 11:37:50;;;;;;;5.87;5.27;;;;;;;;;;4991618;28;20754;-61
2022/11/28 11:40:25;;;;;;;6.57;5.83;;;;;;;;;;5003692;28;20166;-60
2022/11/28 11:42:52;;;;;;;6.37;5.47;;;;;;;;;;5004429;28;20170;-61
2022/11/28 11:45:29;;;;;;;5.83;5.27;;;;;;;;;;4994381;28;20571;-61
2022/11/28 11:47:56;;;;;;;6.20;5.27;;;;;;;;;;4998507;28;20190;-60
2022/11/28 11:50:23;;;;;;;5.77;5.13;;;;;;;;;;5003655;28;20808;-60
2022/11/28 11:53:09;;;;;;;5.67;5.17;;;;;;;;;;4986854;28;20275;-61
2022/11/28 11:55:49;;;;;;;6.83;6.13;;;;;;;;;;4993850;28;20214;-62
2022/11/28 11:58:17;;;;;;;6.17;5.40;;;;;;;;;;4978800;28;20285;-60
2022/11/28 12:00:44;;;;;;;6.73;4.83;;;;;;;;;;5001406;28;20278;-61
2022/11/28 12:03:10;;;;;;;5.90;5.27;;;;;;;;;;5003747;28;20258;-61
2022/11/28 12:05:39;;;;;;;6.40;5.73;;;;;;;;;;4985134;28;20681;-61
2022/11/28 12:08:32;;;;;;;5.27;4.77;;;;;;;;;;5001797;28;20653;-61
2022/11/28 12:11:13;;;;;;;8.37;5.50;;;;;;;;;;4995288;28;20187;-60
2022/11/28 12:13:39;;;;;;;4.63;4.03;;;;;;;;;;5003883;28;20248;-61
2022/11/28 12:16:24;;;;;;;5.53;4.93;;;;;;;;;;5004627;28;20174;-61
2022/11/28 12:22:00;;;;;;;5.87;5.27;;;;;;;;;;4998968;28;20182;-63
2022/11/28 12:24:42;;;;;;;7.20;5.83;;;;;;;;;;5006173;28;20616;-64
2022/11/28 12:27:16;;;;;;;22.03;6.20;;;;;;;;;;5006544;28;20194;-61
2022/11/28 12:29:45;;;;;;;6.67;5.87;;;;;;;;;;4989228;28;20183;-60
2022/11/28 12:32:18;;;;;;;6.27;5.67;;;;;;;;;;4994620;28;20585;-61
2022/11/28 12:34:54;;;;;;;6.93;5.73;;;;;;;;;;5005369;28;20661;-61
2022/11/28 12:37:26;;;;;;;6.60;5.90;;;;;;;;;;5000283;28;20569;-61
2022/11/28 12:40:11;;;;;;;7.23;5.97;;;;;;;;;;5007697;28;20725;-62
2022/11/28 12:42:37;;;;;;;7.30;6.63;;;;;;;;;;5009660;28;20167;-62
2022/11/28 12:45:06;;;;;;;7.40;6.07;;;;;;;;;;5003939;28;20186;-62
2022/11/28 12:51:02;;;;;;;8.77;6.07;;;;;;;;;;4945001;29;20583;-62
2022/11/28 12:53:42;;;;;;;7.27;5.90;;;;;;;;;;4942945;28;20188;-63
2022/11/28 12:56:14;;;;;;;6.50;5.83;;;;;;;;;;4967121;28;20412;-62
2022/11/28 12:59:06;;;;;;;6.77;5.37;;;;;;;;;;4987658;28;20206;-62
2022/11/28 13:01:51;;;;;;;7.23;6.37;;;;;;;;;;4984677;28;20619;-62
2022/11/28 13:04:17;;;;;;;6.10;5.50;;;;;;;;;;4985055;28;20222;-62
2022/11/28 13:07:03;;;;;;;6.33;5.60;;;;;;;;;;4993399;28;20503;-63
2022/11/28 13:09:29;;;;;;;6.30;5.63;;;;;;;;;;4970143;28;20310;-62
2022/11/28 13:12:02;;;;;;;6.83;6.10;;;;;;;;;;4981387;28;20699;-62
2022/11/28 13:14:43;;;;;;;6.57;5.80;;;;;;;;;;4978019;28;20405;-62
2022/11/28 13:17:29;;;;;;;6.93;5.67;;;;;;;;;;4986481;28;20241;-62
2022/11/28 13:20:19;;;;;;;6.03;5.20;;;;;;;;;;4963990;28;20187;-62
2022/11/28 13:22:56;;;;;;;6.20;5.60;;;;;;;;;;4963438;28;20649;-62
2022/11/28 13:25:41;;;;;;;5.80;5.20;;;;;;;;;;4987728;28;20217;-62
2022/11/28 13:28:44;;;;;;;7.33;5.37;;;;;;;;;;4983038;28;20223;-63
2022/11/28 13:31:21;;;;;;;6.00;4.93;;;;;;;;;;4957870;28;20643;-62
2022/11/28 13:33:51;;;;;;;5.77;5.17;;;;;;;;;;4980646;28;20194;-63
2022/11/28 13:36:58;;;;;;;6.30;5.60;;;;;;;;;;4983132;28;20203;-62
2022/11/28 13:39:38;;;;;;;6.63;5.40;;;;;;;;;;4986425;28;20201;-62
2022/11/28 13:42:07;;;;;;;6.50;4.90;;;;;;;;;;5002815;28;20174;-62
2022/11/28 13:48:18;;;;;;;5.03;4.53;;;;;;;;;;4937462;28;20199;-62
2022/11/28 13:50:58;;;;;;;5.90;5.30;;;;;;;;;;4941856;28;20226;-62
2022/11/28 13:53:44;;;;;;;6.30;5.13;;;;;;;;;;4977604;28;20195;-62
2022/11/28 13:56:11;;;;;;;7.50;4.70;;;;;;;;;;5003582;28;20194;-61
2022/11/28 13:58:43;;;;;;;5.50;4.97;;;;;;;;;;5006679;28;20175;-61
2022/11/28 14:01:14;;;;;;;5.23;4.73;;;;;;;;;;5005276;28;20732;-61
2022/11/28 14:04:25;;;;;;;6.10;5.33;;;;;;;;;;5009713;28;20533;-62
2022/11/28 14:06:57;;;;;;;8.67;5.93;;;;;;;;;;4987285;28;20881;-62
2022/11/28 14:09:23;;;;;;;5.97;5.23;;;;;;;;;;4982343;28;20186;-61
2022/11/28 14:11:49;;;;;;;5.73;5.13;;;;;;;;;;4998613;28;20178;-62
2022/11/28 14:14:23;;;;;;;6.20;4.80;;;;;;;;;;5000844;28;20171;-62
2022/11/28 14:16:55;;;;;;;6.60;5.37;;;;;;;;;;4998477;28;20191;-62
2022/11/28 14:19:26;;;;;;;5.53;5.03;;;;;;;;;;4986752;28;20822;-61
2022/11/28 14:21:55;;;;;;;6.33;5.13;;;;;;;;;;4987096;28;20242;-60
2022/11/28 14:24:27;;;;;;;5.53;4.73;;;;;;;;;;4989814;28;20661;-61
2022/11/28 14:26:57;;;;;;;5.20;4.70;;;;;;;;;;4971334;28;20175;-61
2022/11/28 14:29:26;;;;;;;6.00;5.20;;;;;;;;;;5002567;28;20167;-61
2022/11/28 14:31:52;;;;;;;5.70;5.20;;;;;;;;;;4996969;28;20210;-60
2022/11/28 14:34:37;;;;;;;5.50;5.00;;;;;;;;;;4992695;28;20212;-61
2022/11/28 14:37:19;;;;;;;5.40;4.90;;;;;;;;;;4980966;28;20700;-61
2022/11/28 14:39:45;;;;;;;6.10;4.90;;;;;;;;;;4994201;28;20258;-61
2022/11/28 14:42:11;;;;;;;7.13;5.43;;;;;;;;;;4989881;28;20166;-61
2022/11/28 14:44:51;;;;;;;5.40;4.90;;;;;;;;;;4988328;28;20529;-60
2022/11/28 14:47:26;;;;;;;5.37;4.47;;;;;;;;;;4989825;28;20195;-60
2022/11/28 14:50:04;;;;;;;5.67;5.17;;;;;;;;;;4991530;28;20326;-61
2022/11/28 14:52:34;;;;;;;5.93;5.40;;;;;;;;;;4998499;28;20186;-61
2022/11/28 14:55:05;;;;;;;5.70;5.10;;;;;;;;;;5006196;28;20233;-62
2022/11/28 14:57:34;;;;;;;5.30;4.80;;;;;;;;;;5002486;28;20203;-61
2022/11/28 15:00:21;;;;;;;5.47;4.97;;;;;;;;;;5001589;28;20179;-61
2022/11/28 15:02:47;;;;;;;4.97;4.47;;;;;;;;;;4987066;28;20611;-61
2022/11/28 15:05:40;;;;;;;5.20;4.60;;;;;;;;;;4991028;28;20186;-62
2022/11/28 15:08:21;;;;;;;5.50;5.00;;;;;;;;;;4972453;28;20199;-62
2022/11/28 15:11:10;;;;;;;5.17;4.67;;;;;;;;;;4981549;28;20179;-61
2022/11/28 15:13:59;;;;;;;6.30;4.77;;;;;;;;;;4967960;28;20172;-62